createdAt,value
2019-04-04T04:01:05.400Z,7.60
2019-04-04T04:02:05.588Z,10.80
2019-04-04T04:03:05.739Z,8.40
2019-04-04T04:04:05.910Z,7.30
2019-04-04T04:05:06.085Z,10.10
2019-04-04T04:06:08.894Z,8.40
2019-04-04T04:07:06.423Z,8.60
2019-04-04T04:08:06.664Z,10.60
2019-04-04T04:09:06.787Z,10.90
2019-04-04T04:10:06.958Z,7.80
2019-04-04T04:11:07.158Z,7.30
2019-04-04T04:12:10.178Z,7.00
2019-04-04T04:13:07.542Z,7.00
2019-04-04T04:14:07.641Z,10.40
2019-04-04T04:15:07.823Z,6.70
2019-04-04T04:16:07.980Z,8.60
2019-04-04T04:17:09.085Z,7.10
2019-04-04T04:18:08.330Z,7.30
2019-04-04T04:19:08.498Z,8.20
2019-04-04T04:20:08.659Z,8.50
2019-04-04T04:21:10.832Z,6.90
2019-04-04T04:22:12.607Z,7.00
2019-04-04T04:23:09.169Z,7.70
2019-04-04T04:24:09.340Z,8.60
2019-04-04T04:25:09.509Z,7.60
2019-04-04T04:26:10.000Z,18.80
2019-04-04T04:27:14.366Z,10.50
2019-04-04T04:28:10.023Z,7.60
2019-04-04T04:29:10.192Z,7.80
2019-04-04T04:30:10.369Z,7.90
2019-04-04T04:31:14.016Z,7.90
2019-04-04T04:32:10.700Z,8.20
2019-04-04T04:33:10.874Z,8.30
2019-04-04T04:34:11.046Z,8.00
2019-04-04T04:35:11.214Z,8.70
2019-04-04T04:36:15.226Z,8.50
2019-04-04T04:37:11.554Z,8.50
2019-04-04T04:38:11.723Z,9.00
2019-04-04T04:39:11.896Z,8.00
2019-04-04T04:40:14.910Z,9.00
2019-04-04T04:41:12.234Z,8.40
2019-04-04T04:42:12.422Z,8.40
2019-04-04T04:43:15.510Z,8.30
2019-04-04T04:44:12.749Z,10.80
2019-04-04T04:45:12.927Z,9.20
2019-04-04T04:46:16.830Z,9.40
2019-04-04T04:47:13.255Z,8.80
2019-04-04T04:48:13.424Z,9.00
2019-04-04T04:49:13.593Z,8.70
2019-04-04T04:50:13.763Z,8.30
2019-04-04T04:51:13.936Z,10.30
2019-04-04T04:52:15.093Z,9.70
2019-04-04T04:53:18.478Z,9.60
2019-04-04T04:54:14.446Z,9.90
2019-04-04T04:55:14.620Z,9.70
2019-04-04T04:56:17.392Z,10.10
2019-04-04T04:57:28.746Z,10.30
2019-04-04T04:58:15.157Z,9.80
2019-04-04T04:59:15.305Z,9.50
2019-04-04T05:00:16.023Z,9.30
2019-04-04T05:01:16.205Z,9.70
2019-04-04T05:02:15.812Z,9.70
2019-04-04T05:03:15.982Z,9.30
2019-04-04T05:04:16.152Z,9.60
2019-04-04T05:05:16.322Z,9.60
2019-04-04T05:06:16.494Z,10.10
2019-04-04T05:07:16.663Z,10.00
2019-04-04T05:08:16.835Z,10.50
2019-04-04T05:09:17.004Z,11.30
2019-04-04T05:10:17.177Z,11.10
2019-04-04T05:11:19.123Z,11.20
2019-04-04T05:12:17.515Z,16.30
2019-04-04T05:13:17.683Z,14.00
2019-04-04T05:14:17.858Z,11.70
2019-04-04T05:15:18.028Z,10.70
2019-04-04T05:16:18.200Z,11.20
2019-04-04T05:17:18.370Z,10.70
2019-04-04T05:18:18.537Z,10.50
2019-04-04T05:19:19.044Z,11.00
2019-04-04T05:20:18.877Z,10.60
2019-04-04T05:21:25.018Z,10.50
2019-04-04T05:22:19.220Z,10.10
2019-04-04T05:23:19.388Z,10.50
2019-04-04T05:24:19.558Z,9.90
2019-04-04T05:25:19.733Z,9.90
2019-04-04T05:26:19.901Z,10.50
2019-04-04T05:27:20.089Z,10.00
2019-04-04T05:28:20.241Z,9.80
2019-04-04T05:29:20.412Z,9.40
2019-04-04T05:30:20.689Z,9.80
2019-04-04T05:31:20.752Z,9.60
2019-04-04T05:32:21.755Z,8.80
2019-04-04T05:33:22.834Z,9.50
2019-04-04T05:34:21.275Z,9.40
2019-04-04T05:35:21.497Z,9.80
2019-04-04T05:36:21.607Z,9.00
2019-04-04T05:37:21.777Z,8.70
2019-04-04T05:38:21.948Z,8.50
2019-04-04T05:39:22.119Z,8.30
2019-04-04T05:40:23.577Z,8.50
2019-04-04T05:41:22.462Z,8.40
2019-04-04T05:42:22.628Z,8.70
2019-04-04T05:43:22.799Z,8.30
2019-04-04T05:44:22.977Z,8.00
2019-04-04T05:45:23.142Z,8.70
2019-04-04T05:46:23.331Z,8.70
2019-04-04T05:47:23.939Z,8.40
2019-04-04T05:48:23.656Z,8.40
2019-04-04T05:49:23.832Z,8.80
2019-04-04T05:50:24.006Z,8.70
2019-04-04T05:51:24.191Z,8.40
2019-04-04T05:52:24.344Z,8.70
2019-04-04T05:53:24.511Z,8.90
2019-04-04T05:54:24.679Z,8.50
2019-04-04T05:55:24.853Z,8.00
2019-04-04T05:56:25.030Z,8.50
2019-04-04T05:57:25.203Z,8.50
2019-04-04T05:58:25.358Z,8.70
2019-04-04T05:59:25.540Z,8.90
2019-04-04T06:00:27.278Z,8.40
2019-04-04T06:01:25.872Z,8.20
2019-04-04T06:02:26.055Z,7.80
2019-04-04T06:03:26.226Z,8.40
2019-04-04T06:04:26.408Z,8.00
2019-04-04T06:05:27.195Z,9.50
2019-04-04T06:06:26.739Z,11.40
2019-04-04T06:07:26.912Z,9.60
2019-04-04T06:08:27.092Z,10.80
2019-04-04T06:09:27.248Z,13.40
2019-04-04T06:10:27.422Z,11.30
2019-04-04T06:11:27.592Z,12.10
2019-04-04T06:12:27.782Z,10.90
2019-04-04T06:13:27.942Z,9.90
2019-04-04T06:14:30.014Z,11.00
2019-04-04T06:15:30.020Z,10.90
2019-04-04T06:16:28.429Z,11.30
2019-04-04T06:17:28.599Z,8.10
2019-04-04T06:18:28.770Z,10.50
2019-04-04T06:19:28.943Z,12.80
2019-04-04T06:20:29.115Z,11.80
2019-04-04T06:21:29.287Z,11.70
2019-04-04T06:22:29.454Z,10.10
2019-04-04T06:23:29.625Z,10.30
2019-04-04T06:24:29.794Z,14.50
2019-04-04T06:25:34.285Z,11.30
2019-04-04T06:26:30.135Z,13.40
2019-04-04T06:27:30.303Z,14.20
2019-04-04T06:28:30.472Z,12.40
2019-04-04T06:29:30.644Z,12.70
2019-04-04T06:30:42.586Z,9.80
2019-04-04T06:31:31.041Z,8.90
2019-04-04T06:32:31.618Z,8.80
2019-04-04T06:33:34.926Z,7.80
2019-04-04T06:34:31.489Z,7.80
2019-04-04T06:35:31.658Z,7.60
2019-04-04T06:36:31.830Z,6.60
2019-04-04T06:37:34.192Z,7.80
2019-04-04T06:38:32.169Z,7.40
2019-04-04T06:39:32.337Z,7.70
2019-04-04T06:40:32.507Z,7.90
2019-04-04T06:41:32.838Z,11.40
2019-04-04T06:42:35.906Z,10.50
2019-04-04T06:43:33.026Z,9.60
2019-04-04T06:44:33.192Z,8.80
2019-04-04T06:45:33.364Z,9.20
2019-04-04T06:46:33.536Z,8.60
2019-04-04T06:47:33.704Z,9.90
2019-04-04T06:48:33.992Z,8.00
2019-04-04T06:49:35.508Z,9.10
2019-04-04T06:50:34.218Z,7.50
2019-04-04T06:51:34.388Z,8.00
2019-04-04T06:52:34.559Z,6.60
2019-04-04T06:53:34.733Z,6.30
2019-04-04T06:54:34.897Z,6.40
2019-04-04T06:55:39.795Z,6.40
2019-04-04T06:56:35.242Z,6.50
2019-04-04T06:57:36.553Z,6.30
2019-04-04T07:01:07.313Z,6.30
2019-04-04T07:02:07.478Z,6.50
2019-04-04T07:03:07.683Z,6.60
2019-04-04T07:04:07.818Z,6.70
2019-04-04T07:05:10.423Z,6.40
2019-04-04T07:06:10.216Z,6.60
2019-04-04T07:07:08.331Z,6.80
2019-04-04T07:08:08.497Z,6.80
2019-04-04T07:09:08.670Z,6.80
2019-04-04T07:10:08.837Z,6.50
2019-04-04T07:11:21.122Z,6.80
2019-04-04T07:12:20.857Z,6.40
2019-04-04T07:13:21.130Z,6.90
2019-04-04T07:14:09.517Z,6.60
2019-04-04T07:15:12.494Z,6.80
2019-04-04T07:16:09.856Z,6.70
2019-04-04T07:17:10.064Z,6.90
2019-04-04T07:18:12.310Z,7.10
2019-04-04T07:19:14.277Z,6.60
2019-04-04T07:20:10.536Z,7.60
2019-04-04T07:21:10.704Z,7.10
2019-04-04T07:22:10.873Z,6.60
2019-04-04T07:23:14.085Z,7.00
2019-04-04T07:24:11.226Z,6.70
2019-04-04T07:25:11.412Z,6.60
2019-04-04T07:26:14.748Z,6.60
2019-04-04T07:27:11.766Z,6.80
2019-04-04T07:28:11.936Z,6.80
2019-04-04T07:29:12.105Z,7.20
2019-04-04T07:30:15.198Z,7.90
2019-04-04T07:31:12.447Z,7.30
2019-04-04T07:32:12.616Z,7.20
2019-04-04T07:33:12.964Z,7.30
2019-04-04T07:34:13.826Z,7.50
2019-04-04T07:35:13.129Z,7.80
2019-04-04T07:36:13.302Z,7.10
2019-04-04T07:37:13.472Z,6.90
2019-04-04T07:38:13.643Z,7.50
2019-04-04T07:39:13.813Z,7.30
2019-04-04T07:40:13.986Z,6.80
2019-04-04T07:41:14.826Z,6.20
2019-04-04T07:42:15.893Z,6.30
2019-04-04T07:43:14.495Z,6.30
2019-04-04T07:44:14.665Z,6.20
2019-04-04T07:45:14.835Z,6.50
2019-04-04T07:46:16.597Z,6.30
2019-04-04T07:47:16.201Z,6.60
2019-04-04T07:48:17.685Z,6.60
2019-04-04T07:49:15.517Z,6.60
2019-04-04T07:50:15.691Z,6.50
2019-04-04T07:51:15.858Z,6.00
2019-04-04T07:52:17.318Z,6.80
2019-04-04T07:53:16.193Z,6.80
2019-04-04T07:54:16.365Z,6.60
2019-04-04T07:55:16.534Z,8.10
2019-04-04T07:56:16.707Z,6.70
2019-04-04T07:57:19.462Z,6.50
2019-04-04T07:58:17.050Z,6.80
2019-04-04T07:59:17.225Z,7.30
2019-04-04T08:00:17.395Z,7.10
2019-04-04T08:01:17.567Z,6.80
2019-04-04T08:02:17.736Z,7.30
2019-04-04T08:03:17.907Z,7.20
2019-04-04T08:04:18.079Z,7.50
2019-04-04T08:05:18.247Z,7.60
2019-04-04T08:06:18.423Z,7.00
2019-04-04T08:07:18.592Z,7.40
2019-04-04T08:08:18.760Z,7.10
2019-04-04T08:09:18.931Z,6.90
2019-04-04T08:10:20.915Z,7.40
2019-04-04T08:11:19.273Z,7.70
2019-04-04T08:12:19.444Z,7.30
2019-04-04T08:13:19.614Z,7.60
2019-04-04T08:14:19.784Z,7.10
2019-04-04T08:15:19.957Z,7.90
2019-04-04T08:16:20.124Z,7.50
2019-04-04T08:17:20.296Z,9.40
2019-04-04T08:18:20.466Z,7.80
2019-04-04T08:19:20.637Z,8.80
2019-04-04T08:20:20.807Z,9.20
2019-04-04T08:21:20.978Z,9.10
2019-04-04T08:22:21.258Z,9.50
2019-04-04T08:23:21.321Z,9.40
2019-04-04T08:24:21.490Z,9.70
2019-04-04T08:25:21.660Z,10.40
2019-04-04T08:26:21.831Z,10.70
2019-04-04T08:27:22.003Z,10.70
2019-04-04T08:28:22.174Z,10.80
2019-04-04T08:29:22.346Z,10.80
2019-04-04T08:30:22.516Z,11.30
2019-04-04T08:31:22.687Z,11.30
2019-04-04T08:32:22.858Z,11.60
2019-04-04T08:33:23.027Z,11.50
2019-04-04T08:34:23.199Z,11.30
2019-04-04T08:35:23.372Z,11.30
2019-04-04T08:36:23.544Z,10.10
2019-04-04T08:37:23.714Z,11.10
2019-04-04T08:38:23.886Z,11.10
2019-04-04T08:39:24.056Z,10.80
2019-04-04T08:40:24.224Z,10.80
2019-04-04T08:41:24.395Z,10.60
2019-04-04T08:42:24.569Z,10.30
2019-04-04T08:43:24.738Z,13.10
2019-04-04T08:44:24.911Z,10.50
2019-04-04T08:45:25.081Z,10.00
2019-04-04T08:46:25.253Z,10.50
2019-04-04T08:47:25.422Z,10.50
2019-04-04T08:48:25.596Z,10.00
2019-04-04T08:49:25.771Z,9.80
2019-04-04T08:50:25.935Z,9.20
2019-04-04T08:51:26.105Z,10.30
2019-04-04T08:52:26.276Z,10.40
2019-04-04T08:53:38.957Z,10.50
2019-04-04T08:54:26.619Z,9.80
2019-04-04T08:55:26.789Z,9.40
2019-04-04T08:56:26.960Z,10.00
2019-04-04T08:57:27.133Z,9.60
2019-04-04T08:58:27.303Z,10.10
2019-04-04T08:59:27.475Z,9.40
2019-04-04T09:00:27.644Z,10.20
2019-04-04T09:01:27.816Z,9.80
2019-04-04T09:02:27.986Z,10.60
2019-04-04T09:03:28.156Z,9.60
2019-04-04T09:04:28.327Z,10.20
2019-04-04T09:05:28.499Z,9.20
2019-04-04T09:06:29.353Z,10.90
2019-04-04T09:09:00.340Z,10.70
2019-04-04T09:10:00.510Z,10.70
2019-04-04T09:11:00.684Z,10.90
2019-04-04T09:12:00.850Z,10.20
2019-04-04T09:13:01.021Z,11.70
2019-04-04T09:14:01.191Z,11.20
2019-04-04T09:15:01.365Z,11.70
2019-04-04T09:16:01.537Z,11.80
2019-04-04T09:17:01.704Z,11.60
2019-04-04T09:18:01.873Z,13.00
2019-04-04T09:19:02.055Z,11.60
2019-04-04T09:20:02.217Z,11.90
2019-04-04T09:21:02.388Z,12.40
2019-04-04T09:22:02.556Z,12.20
2019-04-04T09:23:02.726Z,12.90
2019-04-04T09:24:02.897Z,12.40
2019-04-04T09:25:04.112Z,11.90
2019-04-04T09:26:05.809Z,14.10
2019-04-04T09:27:03.406Z,12.40
2019-04-04T09:28:03.578Z,12.30
2019-04-04T09:29:03.748Z,13.70
2019-04-04T09:30:03.919Z,12.50
2019-04-04T09:31:04.092Z,13.20
2019-04-04T09:32:04.265Z,13.60
2019-04-04T09:33:04.436Z,13.20
2019-04-04T09:34:04.606Z,13.40
2019-04-04T09:35:04.776Z,13.40
2019-04-04T09:36:04.951Z,14.40
2019-04-04T09:37:05.122Z,16.00
2019-04-04T09:38:05.292Z,14.40
2019-04-04T09:39:05.463Z,13.30
2019-04-04T09:40:05.635Z,14.30
2019-04-04T09:41:05.811Z,16.50
2019-04-04T09:42:05.976Z,14.60
2019-04-04T09:43:06.149Z,14.60
2019-04-04T09:44:06.364Z,15.50
2019-04-04T09:45:06.491Z,15.90
2019-04-04T09:46:06.660Z,15.80
2019-04-04T09:47:06.832Z,14.90
2019-04-04T09:48:07.001Z,14.70
2019-04-04T09:49:07.172Z,15.20
2019-04-04T09:50:07.348Z,14.70
2019-04-04T09:51:07.516Z,15.80
2019-04-04T09:52:07.685Z,15.90
2019-04-04T09:53:07.857Z,15.50
2019-04-04T09:54:08.028Z,16.30
2019-04-04T09:55:08.205Z,15.70
2019-04-04T09:56:08.373Z,14.80
2019-04-04T09:57:08.544Z,15.50
2019-04-04T09:58:08.774Z,16.80
2019-04-04T09:59:08.883Z,18.00
2019-04-04T10:00:09.053Z,16.60
2019-04-04T10:01:09.226Z,17.40
2019-04-04T10:02:09.397Z,16.80
2019-04-04T10:03:09.569Z,16.10
2019-04-04T10:04:09.738Z,16.70
2019-04-04T10:05:09.912Z,15.20
2019-04-04T10:06:10.080Z,16.90
2019-04-04T10:07:10.473Z,17.80
2019-04-04T10:08:10.426Z,16.90
2019-04-04T10:09:15.865Z,15.70
2019-04-04T10:10:10.764Z,16.50
2019-04-04T10:11:10.937Z,16.50
2019-04-04T10:12:11.109Z,15.30
2019-04-04T10:13:11.279Z,16.50
2019-04-04T10:14:11.451Z,15.20
2019-04-04T10:15:11.621Z,15.50
2019-04-04T10:16:11.793Z,16.30
2019-04-04T10:17:11.964Z,16.60
2019-04-04T10:18:12.135Z,16.20
2019-04-04T10:19:12.306Z,17.10
2019-04-04T10:20:12.480Z,15.90
2019-04-04T10:21:12.772Z,17.60
2019-04-04T10:22:12.818Z,18.10
2019-04-04T10:23:13.244Z,17.30
2019-04-04T10:24:13.161Z,18.40
2019-04-04T10:25:13.333Z,17.90
2019-04-04T10:26:13.504Z,16.80
2019-04-04T10:27:13.673Z,20.10
2019-04-04T10:28:13.847Z,17.50
2019-04-04T10:29:14.023Z,16.70
2019-04-04T10:30:14.189Z,17.70
2019-04-04T10:31:14.361Z,15.70
2019-04-04T10:32:14.532Z,16.00
2019-04-04T10:33:14.703Z,17.10
2019-04-04T10:34:14.875Z,17.50
2019-04-04T10:35:15.047Z,16.90
2019-04-04T10:36:15.219Z,17.80
2019-04-04T10:37:15.387Z,17.70
2019-04-04T10:38:15.560Z,17.40
2019-04-04T10:39:28.073Z,16.60
2019-04-04T10:40:15.901Z,17.70
2019-04-04T10:41:16.073Z,16.60
2019-04-04T10:42:16.245Z,18.00
2019-04-04T10:43:16.416Z,16.70
2019-04-04T10:44:16.589Z,18.70
2019-04-04T10:45:16.756Z,17.40
2019-04-04T10:46:16.930Z,17.60
2019-04-04T10:47:17.098Z,18.00
2019-04-04T10:48:17.270Z,17.00
2019-04-04T10:49:17.439Z,18.80
2019-04-04T10:50:17.610Z,16.80
2019-04-04T10:51:17.781Z,17.00
2019-04-04T10:52:17.952Z,18.30
2019-04-04T10:53:18.129Z,18.40
2019-04-04T10:54:18.298Z,17.40
2019-04-04T10:55:18.474Z,18.20
2019-04-04T10:56:18.639Z,17.50
2019-04-04T10:57:18.814Z,18.80
2019-04-04T10:58:18.982Z,18.80
2019-04-04T10:59:19.154Z,19.40
2019-04-04T11:00:19.412Z,19.50
2019-04-04T11:01:19.494Z,18.00
2019-04-04T11:02:19.663Z,17.40
2019-04-04T11:03:19.834Z,18.90
2019-04-04T11:04:20.005Z,17.90
2019-04-04T11:05:20.175Z,18.20
2019-04-04T11:06:20.348Z,17.50
2019-04-04T11:07:20.519Z,16.90
2019-04-04T11:08:20.689Z,16.60
2019-04-04T11:09:20.860Z,16.20
2019-04-04T11:10:21.032Z,17.20
2019-04-04T11:11:21.205Z,17.00
2019-04-04T11:12:21.385Z,16.90
2019-04-04T11:13:32.897Z,16.60
2019-04-04T11:14:21.717Z,18.40
2019-04-04T11:15:21.892Z,15.90
2019-04-04T11:16:30.168Z,18.20
2019-04-04T11:17:22.234Z,17.10
2019-04-04T11:18:22.404Z,18.90
2019-04-04T11:19:31.115Z,17.30
2019-04-04T11:20:22.747Z,16.60
2019-04-04T11:21:22.921Z,19.00
2019-04-04T11:22:23.091Z,17.30
2019-04-04T11:23:23.264Z,16.90
2019-04-04T11:24:23.437Z,18.80
2019-04-04T11:25:23.605Z,17.70
2019-04-04T11:26:23.776Z,17.40
2019-04-04T11:27:23.948Z,16.90
2019-04-04T11:28:24.120Z,17.00
2019-04-04T11:29:24.290Z,20.20
2019-04-04T11:30:24.463Z,16.20
2019-04-04T11:31:24.634Z,16.30
2019-04-04T11:32:24.804Z,17.20
2019-04-04T11:33:24.977Z,17.50
2019-04-04T11:34:25.149Z,17.70
2019-04-04T11:35:25.318Z,17.70
2019-04-04T11:36:25.493Z,15.40
2019-04-04T11:37:25.661Z,16.50
2019-04-04T11:38:25.837Z,20.80
2019-04-04T11:39:26.005Z,17.00
2019-04-04T11:40:26.178Z,16.60
2019-04-04T11:41:26.350Z,17.40
2019-04-04T11:42:26.523Z,17.90
2019-04-04T11:43:26.694Z,16.50
2019-04-04T11:44:26.865Z,16.70
2019-04-04T11:45:27.042Z,16.40
2019-04-04T11:46:27.210Z,15.20
2019-04-04T11:47:27.386Z,16.70
2019-04-04T11:48:27.558Z,16.60
2019-04-04T11:49:28.233Z,16.60
2019-04-04T11:50:27.895Z,16.90
2019-04-04T11:51:28.069Z,16.80
2019-04-04T11:52:28.240Z,17.00
2019-04-04T11:53:28.411Z,17.70
2019-04-04T11:54:28.585Z,16.00
2019-04-04T11:55:28.772Z,16.80
2019-04-04T11:56:28.935Z,17.70
2019-04-04T11:57:29.157Z,17.40
2019-04-04T11:58:29.277Z,16.10
2019-04-04T11:59:29.449Z,19.50
2019-04-04T12:00:29.622Z,17.90
2019-04-04T12:01:29.792Z,19.30
2019-04-04T12:02:32.417Z,18.30
2019-04-04T12:03:30.135Z,18.00
2019-04-04T12:04:30.318Z,17.80
2019-04-04T12:05:30.482Z,19.60
2019-04-04T12:06:30.654Z,16.70
2019-04-04T12:07:30.827Z,18.80
2019-04-04T12:08:30.999Z,17.70
2019-04-04T12:09:31.170Z,17.40
2019-04-04T12:10:31.343Z,19.70
2019-04-04T12:11:31.519Z,17.30
2019-04-04T12:12:31.687Z,19.30
2019-04-04T12:13:31.859Z,17.20
2019-04-04T12:14:32.041Z,18.30
2019-04-04T12:15:32.203Z,17.50
2019-04-04T12:16:32.859Z,18.60
2019-04-04T12:17:32.547Z,19.50
2019-04-04T12:18:32.722Z,19.70
2019-04-04T12:19:32.893Z,19.50
2019-04-04T12:20:33.066Z,20.60
2019-04-04T12:21:33.237Z,19.90
2019-04-04T12:22:33.410Z,18.60
2019-04-04T12:23:33.582Z,16.70
2019-04-04T12:24:33.752Z,17.70
2019-04-04T12:25:33.926Z,19.00
2019-04-04T12:26:34.096Z,16.50
2019-04-04T12:27:34.267Z,17.60
2019-04-04T12:28:34.441Z,19.30
2019-04-04T12:29:34.613Z,22.30
2019-04-04T12:30:34.784Z,21.10
2019-04-04T12:31:34.962Z,20.40
2019-04-04T12:32:35.130Z,22.10
2019-04-04T12:33:35.303Z,20.90
2019-04-04T12:34:35.472Z,19.40
2019-04-04T12:35:35.647Z,19.70
2019-04-04T12:36:35.817Z,19.50
2019-04-04T12:37:35.989Z,20.10
2019-04-04T12:38:36.160Z,18.30
2019-04-04T12:39:36.332Z,18.40
2019-04-04T12:40:36.507Z,16.70
2019-04-04T12:41:36.685Z,17.00
2019-04-04T12:42:36.855Z,16.90
2019-04-04T12:43:37.027Z,18.60
2019-04-04T12:44:37.198Z,16.60
2019-04-04T12:45:37.370Z,19.40
2019-04-04T12:46:37.551Z,18.50
2019-04-04T12:47:37.714Z,18.40
2019-04-04T12:48:37.888Z,17.60
2019-04-04T12:49:38.060Z,18.20
2019-04-04T12:50:38.233Z,18.60
2019-04-04T12:51:38.405Z,20.10
2019-04-04T12:52:38.579Z,18.90
2019-04-04T12:53:38.751Z,18.40
2019-04-04T12:54:38.923Z,16.80
2019-04-04T12:55:39.095Z,19.40
2019-04-04T12:56:39.267Z,16.60
2019-04-04T12:57:39.439Z,17.90
2019-04-04T12:58:39.615Z,18.60
2019-04-04T12:59:39.787Z,19.90
2019-04-04T13:00:39.957Z,18.60
2019-04-04T13:01:40.129Z,18.80
2019-04-04T13:02:40.301Z,20.00
2019-04-04T13:03:40.474Z,20.50
2019-04-04T13:04:40.647Z,16.50
2019-04-04T13:05:40.822Z,17.60
2019-04-04T13:06:40.990Z,17.30
2019-04-04T13:07:41.162Z,16.90
2019-04-04T13:08:41.335Z,16.80
2019-04-04T13:09:41.506Z,16.80
2019-04-04T13:10:41.678Z,17.20
2019-04-04T13:11:41.853Z,17.10
2019-04-04T13:12:42.026Z,18.00
2019-04-04T13:13:42.198Z,16.50
2019-04-04T13:14:42.367Z,19.20
2019-04-04T13:15:42.537Z,17.60
2019-04-04T13:16:42.713Z,19.20
2019-04-04T13:17:42.887Z,18.10
2019-04-04T13:18:43.061Z,18.90
2019-04-04T13:19:43.228Z,19.80
2019-04-04T13:20:43.398Z,18.40
2019-04-04T13:21:43.569Z,17.00
2019-04-04T13:22:43.740Z,17.50
2019-04-04T13:23:43.914Z,18.20
2019-04-04T13:24:44.087Z,16.30
2019-04-04T13:25:44.259Z,17.50
2019-04-04T13:26:44.429Z,19.10
2019-04-04T13:27:44.602Z,17.30
2019-04-04T13:28:44.774Z,16.80
2019-04-04T13:29:44.946Z,17.00
2019-04-04T13:30:45.119Z,17.20
2019-04-04T13:31:45.289Z,16.80
2019-04-04T13:32:45.462Z,18.70
2019-04-04T13:33:45.634Z,19.70
2019-04-04T13:34:58.327Z,19.10
2019-04-04T13:35:45.978Z,17.10
2019-04-04T13:36:46.150Z,17.50
2019-04-04T13:37:46.321Z,17.90
2019-04-04T13:38:46.493Z,16.80
2019-04-04T13:39:46.665Z,18.20
2019-04-04T13:40:46.844Z,18.30
2019-04-04T13:41:47.010Z,18.30
2019-04-04T13:42:47.180Z,17.20
2019-04-04T13:43:47.354Z,17.10
2019-04-04T13:44:47.525Z,17.80
2019-04-04T13:45:47.698Z,18.70
2019-04-04T13:46:47.867Z,17.40
2019-04-04T13:47:48.052Z,16.10
2019-04-04T13:48:48.210Z,17.00
2019-04-04T13:49:48.382Z,16.60
2019-04-04T13:50:48.560Z,16.20
2019-04-04T13:51:48.735Z,16.40
2019-04-04T13:52:48.901Z,16.50
2019-04-04T13:53:49.075Z,16.40
2019-04-04T13:54:49.246Z,17.80
2019-04-04T13:55:49.421Z,16.10
2019-04-04T13:56:49.593Z,15.10
2019-04-04T13:57:49.764Z,15.30
2019-04-04T13:58:49.938Z,16.80
2019-04-04T13:59:50.110Z,17.10
2019-04-04T14:00:50.282Z,16.20
2019-04-04T14:01:50.454Z,16.80
2019-04-04T14:02:50.628Z,16.10
2019-04-04T14:03:50.800Z,15.50
2019-04-04T14:04:50.974Z,15.30
2019-04-04T14:05:51.144Z,15.20
2019-04-04T14:06:51.316Z,14.90
2019-04-04T14:07:51.487Z,16.20
2019-04-04T14:08:51.661Z,15.80
2019-04-04T14:09:51.841Z,14.80
2019-04-04T14:10:57.978Z,18.40
2019-04-04T14:11:52.197Z,15.60
2019-04-04T14:12:52.350Z,16.40
2019-04-04T14:13:52.521Z,15.90
2019-04-04T14:14:52.692Z,16.00
2019-04-04T14:15:52.862Z,16.00
2019-04-04T14:16:53.039Z,14.70
2019-04-04T14:17:53.212Z,15.20
2019-04-04T14:18:53.382Z,15.60
2019-04-04T14:19:53.556Z,15.10
2019-04-04T14:21:03.586Z,16.40
2019-04-04T14:21:53.901Z,16.00
2019-04-04T14:22:54.170Z,15.70
2019-04-04T14:23:56.773Z,15.70
2019-04-04T14:24:54.419Z,16.40
2019-04-04T14:25:54.590Z,17.10
2019-04-04T14:26:54.768Z,16.90
2019-04-04T14:27:57.863Z,16.30
2019-04-04T14:28:55.111Z,16.80
2019-04-04T14:29:55.511Z,17.40
2019-04-04T14:30:55.457Z,16.30
2019-04-04T14:31:55.630Z,17.80
2019-04-04T14:32:55.800Z,16.30
2019-04-04T14:33:55.974Z,15.90
2019-04-04T14:34:56.146Z,16.70
2019-04-04T14:35:56.324Z,17.70
2019-04-04T14:36:56.498Z,16.20
2019-04-04T14:37:56.665Z,17.10
2019-04-04T14:38:56.837Z,17.40
2019-04-04T14:39:57.011Z,17.60
2019-04-04T14:41:09.977Z,18.30
2019-04-04T14:41:57.355Z,16.20
2019-04-04T14:42:57.531Z,16.80
2019-04-04T14:43:59.948Z,17.10
2019-04-04T14:44:57.932Z,17.20
2019-04-04T14:45:58.049Z,17.00
2019-04-04T14:46:58.224Z,17.40
2019-04-04T14:47:58.400Z,17.00
2019-04-04T14:48:58.571Z,18.00
2019-04-04T14:49:58.742Z,17.40
2019-04-04T14:50:58.927Z,16.80
2019-04-04T14:51:59.090Z,16.80
2019-04-04T14:52:59.264Z,17.90
2019-04-04T14:53:59.436Z,16.30
2019-04-04T14:54:59.614Z,17.20
2019-04-04T14:55:59.780Z,16.40
2019-04-04T14:56:59.954Z,15.80
2019-04-04T14:58:00.128Z,18.00
2019-04-04T14:59:00.370Z,18.60
2019-04-04T15:00:00.469Z,17.70
2019-04-04T15:01:00.641Z,18.30
2019-04-04T15:02:00.814Z,16.80
2019-04-04T15:03:00.986Z,19.40
2019-04-04T15:04:01.160Z,18.20
2019-04-04T15:05:01.332Z,19.10
2019-04-04T15:06:01.505Z,19.30
2019-04-04T15:07:01.676Z,22.00
2019-04-04T15:08:01.854Z,17.70
2019-04-04T15:09:02.029Z,17.00
2019-04-04T15:10:02.195Z,18.30
2019-04-04T15:11:02.371Z,16.60
2019-04-04T15:12:02.541Z,16.90
2019-04-04T15:13:02.711Z,18.70
2019-04-04T15:14:02.886Z,17.60
2019-04-04T15:15:03.057Z,18.20
2019-04-04T15:16:03.226Z,23.90
2019-04-04T15:17:03.399Z,21.50
2019-04-04T15:18:03.576Z,18.60
2019-04-04T15:19:03.751Z,19.90
2019-04-04T15:20:03.918Z,18.90
2019-04-04T15:21:04.092Z,20.50
2019-04-04T15:22:04.268Z,21.70
2019-04-04T15:23:04.434Z,22.20
2019-04-04T15:24:04.605Z,23.60
2019-04-04T15:25:04.780Z,22.40
2019-04-04T15:26:04.953Z,24.00
2019-04-04T15:27:05.124Z,21.80
2019-04-04T15:28:05.297Z,21.80
2019-04-04T15:29:05.468Z,19.90
2019-04-04T15:30:05.643Z,20.10
2019-04-04T15:31:05.812Z,22.10
2019-04-04T15:32:06.026Z,23.70
2019-04-04T15:33:06.158Z,21.40
2019-04-04T15:34:06.331Z,20.70
2019-04-04T15:35:06.503Z,20.20
2019-04-04T15:36:06.679Z,21.80
2019-04-04T15:37:06.838Z,21.50
2019-04-04T15:38:07.007Z,20.20
2019-04-04T15:39:07.193Z,21.80
2019-04-04T15:40:07.371Z,21.30
2019-04-04T15:41:07.520Z,20.70
2019-04-04T15:42:07.694Z,22.10
2019-04-04T15:43:07.865Z,22.10
2019-04-04T15:44:08.035Z,19.80
2019-04-04T15:45:08.211Z,18.70
2019-04-04T15:46:11.317Z,22.50
2019-04-04T15:47:08.551Z,20.80
2019-04-04T15:48:08.723Z,22.20
2019-04-04T15:49:08.894Z,21.10
2019-04-04T15:50:09.064Z,20.70
2019-04-04T15:51:09.236Z,21.40
2019-04-04T15:52:09.409Z,21.20
2019-04-04T15:53:09.581Z,20.30
2019-04-04T15:54:09.752Z,20.70
2019-04-04T15:55:09.925Z,21.80
2019-04-04T15:56:10.106Z,22.30
2019-04-04T15:57:10.267Z,20.90
2019-04-04T15:58:10.441Z,25.40
2019-04-04T15:59:10.618Z,25.20
2019-04-04T16:00:10.781Z,22.10
2019-04-04T16:01:10.952Z,23.50
2019-04-04T16:02:11.123Z,23.20
2019-04-04T16:03:11.299Z,21.90
2019-04-04T16:04:11.467Z,21.40
2019-04-04T16:05:11.638Z,22.00
2019-04-04T16:06:11.815Z,23.90
2019-04-04T16:07:11.983Z,23.50
2019-04-04T16:08:12.155Z,23.70
2019-04-04T16:09:12.330Z,24.70
2019-04-04T16:10:12.504Z,28.80
2019-04-04T16:11:12.674Z,24.70
2019-04-04T16:12:12.845Z,24.40
2019-04-04T16:13:13.011Z,21.70
2019-04-04T16:14:13.184Z,23.10
2019-04-04T16:15:13.357Z,23.70
2019-04-04T16:16:13.532Z,21.80
2019-04-04T16:17:13.705Z,21.50
2019-04-04T16:18:13.875Z,23.60
2019-04-04T16:19:14.045Z,23.40
2019-04-04T16:20:14.216Z,22.90
2019-04-04T16:21:14.389Z,23.00
2019-04-04T16:22:14.557Z,20.40
2019-04-04T16:23:14.728Z,23.50
2019-04-04T16:24:14.901Z,22.90
2019-04-04T16:25:15.070Z,23.50
2019-04-04T16:26:15.242Z,23.20
2019-04-04T16:27:15.420Z,23.30
2019-04-04T16:28:15.583Z,22.60
2019-04-04T16:29:15.773Z,24.70
2019-04-04T16:30:15.933Z,21.50
2019-04-04T16:31:16.110Z,21.90
2019-04-04T16:32:16.279Z,25.00
2019-04-04T16:33:16.449Z,26.90
2019-04-04T16:34:16.619Z,22.50
2019-04-04T16:35:16.793Z,24.70
2019-04-04T16:36:16.969Z,24.20
2019-04-04T16:37:17.142Z,24.70
2019-04-04T16:38:17.311Z,22.50
2019-04-04T16:39:17.483Z,26.00
2019-04-04T16:40:17.654Z,23.80
2019-04-04T16:41:17.823Z,23.40
2019-04-04T16:42:17.995Z,24.10
2019-04-04T16:43:18.162Z,24.10
2019-04-04T16:44:18.336Z,26.50
2019-04-04T16:45:18.505Z,25.10
2019-04-04T16:46:18.680Z,25.50
2019-04-04T16:47:18.845Z,26.90
2019-04-04T16:48:19.018Z,24.80
2019-04-04T16:49:19.188Z,25.90
2019-04-04T16:50:19.358Z,27.40
2019-04-04T16:51:19.532Z,26.90
2019-04-04T16:52:19.703Z,25.30
2019-04-04T16:53:19.875Z,26.60
2019-04-04T16:54:20.043Z,25.50
2019-04-04T16:55:20.224Z,28.00
2019-04-04T16:56:20.374Z,27.40
2019-04-04T16:57:20.565Z,30.30
2019-04-04T16:58:20.736Z,25.10
2019-04-04T16:59:20.909Z,29.20
2019-04-04T17:00:21.153Z,29.80
2019-04-04T17:01:21.267Z,27.00
2019-04-04T17:02:21.418Z,26.70
2019-04-04T17:03:21.588Z,27.60
2019-04-04T17:04:21.760Z,26.60
2019-04-04T17:05:21.933Z,28.60
2019-04-04T17:06:22.103Z,26.60